Stafford, Texas
Current Conditions -  °F | °C
As of 9:53 AM on Thursday 30 Oct 2014 (Local Time) from KSGR Reporting Station
Scattered Clouds Scattered Clouds  
Wind Chill: 68°   Ceiling: Unl
Heat Index: 68°   Visibility: 10mi
Dew Point: 52°   Wind: 6mph
Humidity: 56%   Direction: 80°E
Pressure: 30.14"   Gusts: NA
Location:  29.61°N, 95.55°W
Report Text: KSGR 301453Z 08005KT 10SM FEW055 SCT070 20/11 A3014 RMK AO2 SLP207 T02000111 51015
Loading
Personal Weather Stations






























Interactive Weather Map
Tropical Storm Tracking
New forecast layout! Learn more

10-Day Weather Forecast

Advertisements
Track Severe Weather on mobile